Accueil
METAR-TAF:

METAR-TAF

Aéroports :

Aéroport international de Bâle-Mulhouse-Fribourg

Bâle-Mulhouse, France

latitude: 47-36N, longitude: 007-31E, altitude: 270 m

Observation

Le bulletin a été fait il y a 27 minutes, à 04:30 UTC
Vent 8 kt de sud
Température 1°C
Humidité 86%
Pression 1029 hPa
Visibilité: 9000 m

METAR: LFSB 160430Z 18008KT 9000 NSC 01/M01 Q1029 NOSIG

Heure: 05:57 (04:57 UTC)

Prévision

Le bulletin a été fait il y a 5 heures et 57 minutes, à 23:00 UTC
Prévision valable du 16 à 00 UTC au 16 à 24 UTC
Vent 3 kt de sud
Visibilité 10 km ou plus
pas de nuages en-dessous de 1500 mètres et pas de cumulonimbus.
Probabilité 30% :
Temporairement
du 16 à 00 UTC au 16 à 04 UTC
Visibilité: 4000 m
brume

TAF: LFSB 152300Z 1600/1624 18003KT CAVOK PROB30 TEMPO 1600/1604 4000 BR

Observations et prévisions météorologiques de plus de 4000 aéroports (messages METAR et TAF).

Les stations disponibles sont représentées par des disques jaunes et rouges sur la carte.

Passer la souris dessus pour voir le nom de la station.

Cliquer dessus pour voir les observations et prévisions météorologiques.

Pour changer de carte: cliquez sur les boutons verts avec une croix noire pour zoomer, sur le bouton vert avec un tiret pour effectuer un zoom arrière, ou sur les flèches vertes pour les cartes adjacentes.


METAR-TAF: